Eastern Oregon Regional At Pendleton Airport
KPDT : rendu visible

Aérodrome :











RETROUVEZ-NOUS SUR...

 
LOGIN :

S'inscrire | Disclaimer

   EN    FR    IT 

 









Légende :    VFR   VFR Marginal   IFR   IFR Intensif   IFR Très Intensif
Visi : 
Plafond : 
>= 8 km
>= 3000ft
5 à 8 km
1000 à 3000 ft
1500m à 5 km
500 à 1000 ft
800 à 1500m
200 à 500 ft
< 800m
< 200 ft
Symboles :   Orages  Brouillard  Fortes neiges  Fortes précipitations  Vent > 20 kt







- Altitude de l'aérodrome : 1497 ft


KPDT - Eastern Oregon Regional At Pendleton

DERNIER METAR :
  • 241953Z VRB04KT 10SM CLR 16/03 A3022 RMK AO2 SLP225 T01560028

METARs EXPIRÉS :
  • 241853Z VRB05KT 10SM FEW040 15/03 A3023 RMK AO2 SLP228 T01500028
  • 241753Z 30007KT 10SM SCT040 14/03 A3023 RMK AO2 SLP230 T01390028 10139 20094 51013

TAF KPDT
Valide du 24 à 18h jusqu'au 25 à 18h UTC


241720Z 2418/2518 27010G16KT P6SM FEW040
FM250000 28008KT P6SM SKC
FM250500 13006KT P6SM FEW250
FM251730 34007KT P6SM SCT250
FIR KZSE / Amérique du Nord



MET'MAP, la Météo Aéronautique d'un coup d'oeil ! - Copyright ORBIFLY Décembre 2007 - Disclaimer

ORBIFLY MET'MAP TEAM :

Programmation & Développement : Alexandra Zaïnal
Conception & Développement : Baudouin d'Aumeries
Co-Programmation & Développement : Marc-Olivier Méhu
Soutien technique & logistique : Manuel Goepfert

Contact : metmap@orbifly.com




SOURCES & CREDITS :

   NOAA       Earth
Advisory